Wilton, Alabama
Current Conditions -  °F | °C
As of 3:53 PM on Monday 24 Nov 2014 (Local Time) from KEET Reporting Station
Clear Clear  
Wind Chill: 64°   Ceiling: Unl
Heat Index: 64°   Visibility: 10mi
Dew Point: 45°   Wind: 7mph
Humidity: 50%   Direction: NA
Pressure: 29.9"   Gusts: NA
Location:  33.08°N, 86.88°W
Report Text: KEET 242153Z AUTO VRB06KT 10SM CLR 18/07 A2990 RMK AO2 SLP122 T01780072
Loading
Personal Weather Stations






























Interactive Weather Map New forecast layout! Learn more

10-Day Weather Forecast

Advertisements
Track Severe Weather on mobile